aviador You're here:

SBGL Decoded Metar

RIO DE JANEIRO in BRAZIL
Report Time2017-12-15 14:00:00
UTC Time2017-12-15 14:14:32
Flight Rules vfr VFR
Wind350° at 04 kt
W.Decomp.*RWY 33: 3.0 kt HW 2.6 kt RCW
RWY 10: 0.1 kt HW 4 kt LCW
W.Rank350° ranks 11
Current wind is below 350° avg. (4.3)
Visibility9999 m
Phenomena:N/A
Clouds:N/A
Expected CloudBase > 6,000 ft AGL from Temp-Dew spread
CeilingNone
Temp33°C (ISA +18)
Dew Point18°C (41% RH)
Heat Index34.0°C
QNH1012 hPa
Density Alt2,382 ft
Elevation20 ft
Report Wrong Elevation
Raw Report
SBGL 151400Z 35004KT CAVOK 33/18 Q1012=

Extra information for SBGL:More info

Metar Taf Metar & Taf Last 4 Metars F.Rules Stats Wind Profile Meteogram Temp Stats Airport Information Weather charts Add Link Nearby VenuesMetar ALERT Operation Metar Decoded Social comments